Time;durP1;ratioP1;P1;durP2;ratioP2;P2;SDS_P1;SDS_P2;PMS_P1;PMS_P2;Temp;Humidity;BMP_temperature;BMP_pressure;BME280_temperature;BME280_humidity;BME280_pressure;Samples;Min_cycle;Max_cycle;Signal;HPM_P1;HPM_P2
2022/12/25 00:01:08;;;;;;;;;13.33;13.33;;;;;13.77;73.26;100903.72;5046514;28;45144;-65
2022/12/25 00:03:33;;;;;;;;;10.67;10.67;;;;;13.81;73.77;100923.47;5050368;28;45010;-64
2022/12/25 00:05:59;;;;;;;;;12.33;10.00;;;;;13.79;73.77;100920.78;5050769;28;45440;-65
2022/12/25 00:08:24;;;;;;;;;13.00;11.00;;;;;13.83;73.59;100924.41;5050383;28;44945;-64
2022/12/25 00:11:01;;;;;;;;;12.00;11.00;;;;;13.83;73.85;100925.28;5038342;28;45482;-64
2022/12/25 00:13:27;;;;;;;;;11.00;11.00;;;;;13.83;73.49;100921.72;5029448;28;45746;-64
2022/12/25 00:15:53;;;;;;;;;15.00;11.00;;;;;13.75;74.00;100916.22;5030520;28;46575;-63
2022/12/25 00:18:18;;;;;;;;;12.67;10.67;;;;;13.70;73.89;100908.97;5016617;28;45857;-63
2022/12/25 00:20:44;;;;;;;;;9.00;9.00;;;;;13.69;73.56;100905.38;5028232;28;45561;-64
2022/12/25 00:23:09;;;;;;;;;13.67;10.67;;;;;13.25;73.89;100831.28;5032242;28;45601;-62
2022/12/25 00:25:38;;;;;;;;;13.33;10.33;;;;;13.68;73.93;100905.34;5033092;28;45550;-64
2022/12/25 00:28:04;;;;;;;;;12.00;9.00;;;;;13.67;74.55;100904.44;5034384;28;45775;-63
2022/12/25 00:30:29;;;;;;;;;8.33;8.33;;;;;13.64;74.31;100896.34;5026718;28;45879;-66
2022/12/25 00:32:54;;;;;;;;;11.67;11.67;;;;;13.67;74.30;100904.44;5029927;28;45594;-64
2022/12/25 00:35:19;;;;;;;;;12.00;11.00;;;;;13.66;74.19;100894.59;5030752;28;46728;-63
2022/12/25 00:37:45;;;;;;;;;10.67;10.67;;;;;13.64;74.07;100889.22;5035563;28;45393;-64
2022/12/25 00:40:11;;;;;;;;;12.33;11.00;;;;;13.54;73.72;100873.81;5036476;28;45563;-64
2022/12/25 00:42:36;;;;;;;;;12.00;10.33;;;;;13.72;74.09;100909.91;5017757;28;45554;-64
2022/12/25 00:45:03;;;;;;;;;9.33;9.33;;;;;13.69;73.78;100908.06;5036285;28;45497;-65
2022/12/25 00:47:29;;;;;;;;;9.67;9.67;;;;;13.64;74.22;100899.94;5035449;28;45426;-64
2022/12/25 00:49:54;;;;;;;;;13.67;11.00;;;;;13.75;73.50;100909.94;5035152;28;45460;-64
2022/12/25 00:52:19;;;;;;;;;10.00;9.33;;;;;13.68;74.22;100882.09;5036811;28;45539;-64
2022/12/25 00:54:45;;;;;;;;;14.00;10.67;;;;;13.75;73.96;100880.41;5035968;28;45431;-64
2022/12/25 00:57:10;;;;;;;;;11.33;8.33;;;;;13.81;73.60;100894.84;5035909;28;45582;-64
2022/12/25 00:59:35;;;;;;;;;11.00;10.00;;;;;13.83;73.17;100886.81;5034136;28;46088;-64
2022/12/25 01:02:22;;;;;;;;;8.33;7.00;;;;;13.72;72.71;100869.63;5035080;28;45708;-65
2022/12/25 01:04:46;;;;;;;;;5.00;3.00;;;;;13.75;73.45;100873.25;5031849;28;45343;-64
2022/12/25 01:07:11;;;;;;;;;12.67;9.00;;;;;13.76;73.17;100864.31;5031573;28;45416;-63
2022/12/25 01:12:21;;;;;;;;;12.33;11.00;;;;;13.86;73.31;100881.50;5029839;28;45575;-65
2022/12/25 01:14:47;;;;;;;;;11.33;9.33;;;;;13.76;73.22;100858.97;5036145;28;46275;-64
2022/12/25 01:17:12;;;;;;;;;9.33;7.67;;;;;13.86;73.31;100880.56;5032270;28;45452;-64
2022/12/25 01:19:38;;;;;;;;;13.33;10.67;;;;;13.85;73.48;100889.53;5035025;28;52202;-65
2022/12/25 01:22:03;;;;;;;;;9.00;8.67;;;;;13.88;73.17;100879.72;5031575;28;45254;-64
2022/12/25 01:24:28;;;;;;;;;12.33;10.00;;;;;13.91;73.23;100885.13;5031776;28;45452;-64
2022/12/25 01:26:54;;;;;;;;;13.33;10.33;;;;;13.90;73.25;100879.75;5034596;28;45471;-64
2022/12/25 01:29:19;;;;;;;;;12.00;11.33;;;;;13.83;73.57;100868.91;5035713;28;45320;-64
2022/12/25 01:31:44;;;;;;;;;13.33;11.00;;;;;13.93;73.01;100887.84;5017796;28;45653;-64
2022/12/25 01:34:09;;;;;;;;;8.67;7.67;;;;;13.91;73.20;100886.91;5034169;28;63085;-64
2022/12/25 01:36:35;;;;;;;;;10.33;10.33;;;;;13.81;72.89;100878.72;5033812;28;50349;-64
2022/12/25 01:39:00;;;;;;;;;11.00;11.00;;;;;13.86;73.23;100888.63;5026405;28;52806;-64
2022/12/25 01:41:25;;;;;;;;;12.33;12.33;;;;;13.84;73.35;100888.59;5036347;28;45416;-63
2022/12/25 01:44:11;;;;;;;;;13.33;10.33;;;;;13.89;73.67;100899.41;5035161;28;46196;-63
2022/12/25 01:46:36;;;;;;;;;10.67;10.00;;;;;13.72;73.09;100872.31;5039055;28;45817;-64
2022/12/25 01:49:09;;;;;;;;;12.33;10.33;;;;;13.86;73.23;100889.53;5031748;28;45495;-63
2022/12/25 01:51:40;;;;;;;;;11.33;11.33;;;;;13.86;73.21;100894.00;5024416;28;45431;-64
2022/12/25 01:54:11;;;;;;;;;15.67;10.67;;;;;13.87;73.92;100885.06;5033032;28;46221;-63
2022/12/25 01:56:38;;;;;;;;;10.00;9.67;;;;;13.94;73.54;100890.56;5032922;28;45534;-66
2022/12/25 01:59:06;;;;;;;;;9.33;8.33;;;;;13.91;73.88;100884.22;5035277;28;45355;-65
2022/12/25 02:01:32;;;;;;;;;15.33;13.00;;;;;13.95;73.81;100889.66;5042260;28;45541;-64
2022/12/25 02:04:05;;;;;;;;;9.67;9.00;;;;;13.97;73.26;100900.44;5038071;28;45541;-64
2022/12/25 02:06:33;;;;;;;;;10.00;8.00;;;;;13.83;72.76;100859.94;5017548;28;46224;-65
2022/12/25 02:08:58;;;;;;;;;10.00;8.33;;;;;13.98;73.14;100870.00;5034394;28;45781;-64
2022/12/25 02:14:08;;;;;;;;;10.33;9.33;;;;;13.95;73.14;100869.97;5035189;28;45433;-63
2022/12/25 02:16:37;;;;;;;;;16.67;12.67;;;;;13.96;73.36;100874.47;5043794;28;45029;-64
2022/12/25 02:19:21;;;;;;;;;12.00;9.00;;;;;14.00;72.97;100882.56;5038252;28;45470;-63
2022/12/25 02:22:11;;;;;;;;;9.00;8.00;;;;;14.03;72.78;100870.97;5037220;28;45593;-64
2022/12/25 02:24:37;;;;;;;;;12.33;8.33;;;;;14.03;73.01;100860.22;5030998;28;45534;-63
2022/12/25 02:27:02;;;;;;;;;8.00;8.00;;;;;14.03;72.86;100862.91;5028565;28;45543;-64
2022/12/25 02:29:58;;;;;;;;;9.00;8.67;;;;;14.02;73.25;100858.41;5012223;28;45468;-63
2022/12/25 02:32:30;;;;;;;;;7.00;5.67;;;;;13.85;72.52;100844.75;5031377;28;45608;-64
2022/12/25 02:35:06;;;;;;;;;6.33;6.00;;;;;13.98;72.60;100876.28;5036778;28;46737;-63
2022/12/25 02:37:41;;;;;;;;;8.00;6.00;;;;;13.94;72.86;100868.16;5018325;28;45391;-62
2022/12/25 02:40:18;;;;;;;;;6.33;6.33;;;;;13.88;73.08;100849.28;5031700;28;45394;-64
2022/12/25 03:08:28;;;;;;;;;10.00;5.67;;;;;13.76;74.09;100841.91;5028588;28;45802;-62
2022/12/25 03:13:51;;;;;;;;;7.00;5.00;;;;;13.78;74.80;100826.75;5032162;28;45340;-64
2022/12/25 03:26:53;;;;;;;;;7.67;5.00;;;;;13.75;74.54;100829.41;5014547;28;45427;-63
2022/12/25 03:27:16;;;;;;;;;11.33;8.00;;;;;13.64;74.72;100789.88;5032170;28;45498;-63
2022/12/25 03:32:37;;;;;;;;;14.67;11.00;;;;;13.79;74.91;100816.03;5027692;28;45558;-62
2022/12/25 03:35:24;;;;;;;;;15.33;10.67;;;;;13.81;74.92;100816.06;5032437;28;45446;-63
2022/12/25 04:36:33;;;;;;;;;18.33;14.67;;;;;13.80;75.69;100744.44;5029811;28;45418;-63
2022/12/25 04:38:59;;;;;;;;;19.00;16.00;;;;;13.69;75.45;100706.69;5032987;28;50412;-64
2022/12/25 04:41:24;;;;;;;;;18.67;14.67;;;;;13.69;75.82;100698.63;5037805;28;56273;-64
2022/12/25 04:43:49;;;;;;;;;12.00;12.00;;;;;13.73;75.32;100707.66;5022112;28;45344;-63
2022/12/25 04:46:15;;;;;;;;;19.00;16.33;;;;;13.70;75.79;100700.44;5039176;28;45734;-64
2022/12/25 04:48:40;;;;;;;;;16.67;12.67;;;;;13.78;75.93;100735.47;5046032;28;45356;-63
2022/12/25 04:51:22;;;;;;;;;20.00;16.00;;;;;13.77;75.95;100741.69;5043113;28;45306;-65
2022/12/25 04:53:48;;;;;;;;;18.67;15.33;;;;;13.73;75.68;100746.13;5034353;28;45593;-63
2022/12/25 04:56:14;;;;;;;;;20.33;15.67;;;;;13.79;75.83;100761.41;5018355;28;46229;-64
2022/12/25 04:58:40;;;;;;;;;24.00;15.33;;;;;13.78;75.54;100754.25;5038840;28;45556;-64
2022/12/25 05:01:05;;;;;;;;;19.67;15.00;;;;;13.81;76.03;100759.69;5034569;28;45474;-63
2022/12/25 05:03:31;;;;;;;;;18.25;14.25;;;;;13.80;75.90;100734.56;5019029;28;45682;-64
2022/12/25 05:05:56;;;;;;;;;21.75;16.50;;;;;13.61;76.05;100705.69;5032923;28;45947;-63
2022/12/25 05:08:22;;;;;;;;;23.33;14.67;;;;;13.72;75.59;100717.47;5035844;28;45328;-63
2022/12/25 05:10:48;;;;;;;;;14.67;12.00;;;;;13.80;75.97;100701.47;5036398;28;45568;-64
2022/12/25 05:13:14;;;;;;;;;16.00;12.00;;;;;13.66;76.08;100634.19;5017260;28;45626;-67
2022/12/25 05:15:40;;;;;;;;;16.00;15.00;;;;;13.88;75.21;100653.22;5036587;28;46269;-63
2022/12/25 05:18:05;;;;;;;;;21.67;16.33;;;;;13.90;75.01;100656.81;5031230;28;45585;-64
2022/12/25 05:20:31;;;;;;;;;15.00;14.00;;;;;13.79;75.59;100646.88;5032518;28;45400;-62
2022/12/25 05:22:56;;;;;;;;;17.33;15.67;;;;;13.83;75.45;100667.50;5036683;28;45492;-64
2022/12/25 05:25:21;;;;;;;;;16.67;15.33;;;;;13.87;75.78;100683.63;5038453;28;45535;-64
2022/12/25 05:27:47;;;;;;;;;20.00;16.00;;;;;13.91;75.53;100691.75;5013098;28;45420;-63
2022/12/25 05:30:12;;;;;;;;;17.33;15.33;;;;;13.90;75.26;100705.16;5032830;28;45660;-63
2022/12/25 05:32:38;;;;;;;;;17.67;15.00;;;;;13.71;75.64;100662.00;5032620;28;45538;-62
2022/12/25 05:35:03;;;;;;;;;20.33;18.33;;;;;13.83;75.55;100686.28;5035720;28;47950;-64
2022/12/25 05:37:28;;;;;;;;;19.33;15.00;;;;;13.79;75.47;100665.66;5035257;28;45631;-64
2022/12/25 05:39:54;;;;;;;;;28.00;25.50;;;;;13.86;75.13;100680.06;5035526;28;45866;-64
2022/12/25 05:42:19;;;;;;;;;18.00;15.33;;;;;13.85;75.45;100686.31;5036174;28;45368;-65
2022/12/25 05:44:44;;;;;;;;;20.33;18.33;;;;;13.80;75.50;100683.56;5035796;28;46068;-63
2022/12/25 05:47:10;;;;;;;;;19.00;16.00;;;;;13.80;75.33;100690.72;5034027;28;60831;-63
2022/12/25 05:49:35;;;;;;;;;21.00;16.67;;;;;13.72;75.63;100671.81;5031783;28;46017;-64
2022/12/25 05:52:00;;;;;;;;;16.00;14.33;;;;;13.81;75.46;100704.16;5034299;28;45513;-64
2022/12/25 05:54:26;;;;;;;;;16.67;15.00;;;;;13.83;75.50;100690.75;5032602;28;45387;-64
2022/12/25 05:56:51;;;;;;;;;19.33;13.33;;;;;13.79;75.47;100691.59;5020799;28;46069;-64
2022/12/25 05:59:16;;;;;;;;;16.33;14.00;;;;;13.74;75.83;100686.19;5034807;28;45515;-64
2022/12/25 06:01:42;;;;;;;;;18.67;17.33;;;;;13.75;75.66;100666.50;5035998;28;45392;-64
2022/12/25 06:04:07;;;;;;;;;21.00;17.33;;;;;13.69;75.70;100671.78;5032236;28;45407;-63
2022/12/25 06:06:32;;;;;;;;;19.67;19.67;;;;;13.73;76.05;100680.81;5034849;28;45575;-64
2022/12/25 06:08:58;;;;;;;;;22.67;16.33;;;;;13.79;76.16;100692.53;5037045;28;45495;-62
2022/12/25 06:11:24;;;;;;;;;19.33;13.00;;;;;13.75;76.17;100670.97;5037526;28;45407;-65
2022/12/25 06:13:52;;;;;;;;;14.33;12.67;;;;;13.75;76.27;100661.13;5035734;28;45506;-65
2022/12/25 06:16:18;;;;;;;;;17.00;16.00;;;;;13.83;76.11;100680.03;5035284;28;45345;-64
2022/12/25 06:18:46;;;;;;;;;19.00;15.00;;;;;13.76;75.53;100653.97;5030336;28;45453;-64
2022/12/25 06:21:14;;;;;;;;;12.67;12.00;;;;;13.61;75.62;100627.84;5033000;28;45474;-63
2022/12/25 06:23:39;;;;;;;;;14.67;14.00;;;;;13.73;75.96;100652.16;5032112;28;45446;-63
2022/12/25 06:26:10;;;;;;;;;14.67;13.00;;;;;13.69;76.11;100647.63;5033550;28;45308;-64
2022/12/25 06:28:36;;;;;;;;;22.67;17.33;;;;;13.69;76.12;100663.72;5038822;28;45504;-64
2022/12/25 06:31:06;;;;;;;;;16.33;14.67;;;;;13.74;75.92;100659.34;5034169;28;45541;-64
2022/12/25 06:33:32;;;;;;;;;18.67;14.00;;;;;13.71;76.33;100644.94;5031177;28;46702;-63
2022/12/25 06:35:57;;;;;;;;;15.00;13.33;;;;;13.62;75.82;100616.22;5031700;28;45466;-64
2022/12/25 06:38:22;;;;;;;;;15.67;14.00;;;;;13.77;75.77;100631.59;5033685;28;46784;-63
2022/12/25 06:40:47;;;;;;;;;15.00;15.00;;;;;13.75;75.72;100634.28;5032869;28;45572;-64
2022/12/25 06:43:13;;;;;;;;;16.67;15.67;;;;;13.74;75.48;100634.25;5035389;28;50257;-64
2022/12/25 06:45:38;;;;;;;;;13.67;12.00;;;;;13.73;75.93;100627.09;5034806;28;53959;-65
2022/12/25 06:48:04;;;;;;;;;17.67;14.00;;;;;13.72;75.92;100615.44;5034627;28;44656;-64
2022/12/25 06:50:29;;;;;;;;;14.33;14.00;;;;;13.34;75.70;100550.59;5035489;28;45411;-64
2022/12/25 06:52:55;;;;;;;;;13.00;13.00;;;;;13.67;75.78;100606.44;5035058;28;46527;-64
2022/12/25 06:55:21;;;;;;;;;15.67;14.67;;;;;13.69;75.68;100611.81;5034832;28;45550;-63
2022/12/25 06:57:46;;;;;;;;;13.33;11.00;;;;;13.69;74.80;100641.34;5035202;28;45397;-63
2022/12/25 07:00:12;;;;;;;;;14.00;12.00;;;;;13.62;75.12;100630.53;5033654;28;45498;-64
2022/12/25 07:02:38;;;;;;;;;15.00;12.00;;;;;13.67;74.83;100648.50;5033569;28;46140;-63
2022/12/25 07:05:04;;;;;;;;;14.67;12.33;;;;;13.60;75.41;100644.84;5033203;28;45393;-63
2022/12/25 07:07:29;;;;;;;;;13.00;13.00;;;;;13.61;75.28;100654.69;5031202;28;45429;-64
2022/12/25 07:09:55;;;;;;;;;10.00;10.00;;;;;13.65;75.41;100667.28;5033306;28;45329;-64
2022/12/25 07:12:22;;;;;;;;;13.33;11.00;;;;;13.66;75.37;100660.09;5034115;28;55130;-65
2022/12/25 07:14:48;;;;;;;;;13.00;11.33;;;;;13.63;74.92;100650.25;5028718;28;45384;-66
2022/12/25 07:17:18;;;;;;;;;13.00;11.67;;;;;13.72;75.31;100653.03;5031566;28;45463;-64
2022/12/25 07:19:45;;;;;;;;;16.67;11.67;;;;;13.75;75.04;100636.06;5028911;28;45249;-63
2022/12/25 07:22:11;;;;;;;;;13.00;10.33;;;;;13.72;75.04;100615.44;5015905;28;45574;-63
2022/12/25 07:24:36;;;;;;;;;14.33;12.00;;;;;13.67;74.62;100597.50;5034592;28;45248;-64
2022/12/25 07:27:02;;;;;;;;;13.67;12.00;;;;;13.77;74.92;100604.75;5030653;28;45755;-63
2022/12/25 07:29:27;;;;;;;;;13.33;12.00;;;;;13.76;74.96;100589.53;5032169;28;45513;-63
2022/12/25 07:31:52;;;;;;;;;15.67;13.33;;;;;13.73;75.02;100590.41;5034570;28;46595;-64
2022/12/25 07:34:18;;;;;;;;;14.33;10.00;;;;;13.61;74.85;100564.34;5034546;28;45719;-64
2022/12/25 07:36:43;;;;;;;;;10.00;10.00;;;;;13.78;74.81;100582.41;5034595;28;45360;-65
2022/12/25 07:39:10;;;;;;;;;8.33;8.00;;;;;13.67;74.41;100552.75;5035055;28;45278;-64
2022/12/25 07:41:35;;;;;;;;;14.00;10.00;;;;;13.70;74.59;100552.78;5033362;28;45538;-64
2022/12/25 07:44:00;;;;;;;;;16.67;11.00;;;;;13.80;74.12;100564.50;5034091;28;45665;-63
2022/12/25 07:46:27;;;;;;;;;11.33;9.67;;;;;13.69;74.15;100528.59;5030679;28;45565;-65
2022/12/25 07:48:52;;;;;;;;;8.00;8.00;;;;;13.68;74.13;100524.09;5034284;28;45375;-64
2022/12/25 07:51:18;;;;;;;;;12.33;11.00;;;;;13.72;74.00;100548.31;5033976;28;45508;-63
2022/12/25 07:53:43;;;;;;;;;13.00;9.33;;;;;13.69;74.53;100567.06;5034237;28;45411;-65
2022/12/25 07:56:17;;;;;;;;;13.67;9.67;;;;;13.72;74.30;100587.69;5030756;28;45510;-64
2022/12/25 07:58:43;;;;;;;;;14.00;11.33;;;;;13.56;73.98;100578.56;5034998;28;45447;-64
2022/12/25 08:01:11;;;;;;;;;19.00;14.00;;;;;13.63;74.40;100610.88;5035051;28;46375;-63
2022/12/25 08:03:37;;;;;;;;;13.33;11.00;;;;;13.63;74.22;100605.50;5034012;28;45355;-63
2022/12/25 08:06:06;;;;;;;;;10.00;8.67;;;;;13.58;74.77;100612.59;5030896;28;45436;-64
2022/12/25 08:08:32;;;;;;;;;9.67;9.33;;;;;13.58;74.65;100609.91;5018370;28;45550;-63
2022/12/25 08:10:59;;;;;;;;;10.33;9.33;;;;;13.61;74.49;100609.97;5035504;28;47323;-63
2022/12/25 08:13:25;;;;;;;;;7.00;6.67;;;;;13.64;74.15;100617.13;5034551;28;45684;-63
2022/12/25 08:15:57;;;;;;;;;10.00;9.00;;;;;13.56;74.15;100606.34;5026671;28;45430;-64
2022/12/25 08:18:22;;;;;;;;;11.67;11.00;;;;;13.60;73.74;100628.72;5039487;28;45694;-63
2022/12/25 08:20:48;;;;;;;;;10.67;9.00;;;;;13.55;74.15;100619.72;5034329;28;45452;-62
2022/12/25 08:23:13;;;;;;;;;12.33;9.33;;;;;13.53;74.34;100622.41;5039806;28;45346;-64
2022/12/25 08:25:38;;;;;;;;;16.33;10.67;;;;;13.49;74.37;100606.22;5030436;28;45895;-63
2022/12/25 08:28:26;;;;;;;;;;;;;;;;;;;;;
2022/12/25 08:30:51;;;;;;;;;11.33;10.33;;;;;13.45;73.87;100587.41;5027030;28;74826;-64
2022/12/25 08:33:17;;;;;;;;;12.67;12.67;;;;;13.47;73.63;100582.06;5038158;28;47007;-63
2022/12/25 08:35:51;;;;;;;;;12.67;8.67;;;;;13.50;73.34;100590.16;5034203;28;45743;-65
2022/12/25 08:38:16;;;;;;;;;10.67;9.67;;;;;13.50;73.45;100579.41;5034251;28;45439;-65
2022/12/25 08:40:49;;;;;;;;;13.67;13.33;;;;;13.48;73.63;100569.53;5037290;28;45544;-66
2022/12/25 08:43:14;;;;;;;;;11.00;8.00;;;;;13.52;73.03;100596.41;5034625;28;58027;-62
2022/12/25 08:45:49;;;;;;;;;8.33;6.67;;;;;13.48;73.16;100580.25;5032025;28;45753;-63
2022/12/25 08:48:14;;;;;;;;;15.67;11.67;;;;;13.31;73.33;100559.44;5038487;28;45456;-62
2022/12/25 08:50:48;;;;;;;;;10.67;8.00;;;;;13.44;73.67;100584.69;5048436;28;45223;-63
2022/12/25 08:53:14;;;;;;;;;12.67;9.00;;;;;13.43;73.21;100566.81;5035196;28;45275;-63
2022/12/25 08:55:40;;;;;;;;;13.00;12.00;;;;;13.44;73.42;100587.38;5030020;28;45443;-63
2022/12/25 08:58:05;;;;;;;;;8.33;8.33;;;;;13.40;72.85;100582.88;5027504;28;45573;-62
2022/12/25 09:00:30;;;;;;;;;8.00;8.00;;;;;13.43;73.40;100602.59;5035759;28;46312;-62
2022/12/25 09:02:56;;;;;;;;;9.33;9.33;;;;;13.42;72.83;100597.19;5029925;28;45546;-63
2022/12/25 09:05:21;;;;;;;;;10.67;7.67;;;;;13.41;72.83;100576.59;5035875;28;50401;-64
2022/12/25 09:07:46;;;;;;;;;6.00;3.00;;;;;13.43;72.21;100575.75;5033301;28;45800;-64
2022/12/25 09:10:12;;;;;;;;;6.67;6.67;;;;;13.53;72.19;100571.41;5035879;28;46265;-65
2022/12/25 09:12:37;;;;;;;;;7.00;6.00;;;;;13.52;72.47;100566.00;5028260;28;45347;-64
2022/12/25 09:15:03;;;;;;;;;8.67;8.33;;;;;13.54;72.38;100583.03;5029176;28;45580;-65
2022/12/25 09:17:29;;;;;;;;;11.00;8.00;;;;;13.09;72.48;100518.97;5027018;28;45603;-63
2022/12/25 09:19:54;;;;;;;;;9.67;6.00;;;;;13.50;71.53;100589.25;5024381;28;46580;-65
2022/12/25 09:22:20;;;;;;;;;8.00;8.00;;;;;13.47;71.65;100587.41;5034647;28;47063;-65
2022/12/25 09:24:45;;;;;;;;;7.67;6.33;;;;;13.50;71.39;100589.25;5035737;28;45908;-63
2022/12/25 09:27:11;;;;;;;;;7.00;7.00;;;;;13.37;71.44;100575.66;5029440;28;45998;-64
2022/12/25 09:29:37;;;;;;;;;10.33;9.67;;;;;13.48;71.12;100608.03;5023417;28;47070;-66
2022/12/25 09:32:03;;;;;;;;;8.00;8.00;;;;;13.48;70.88;100609.78;5043700;28;45650;-64
2022/12/25 09:34:29;;;;;;;;;8.67;7.33;;;;;13.34;71.26;100599.78;5048551;28;45339;-65
2022/12/25 09:36:54;;;;;;;;;9.67;7.00;;;;;13.31;71.02;100596.13;5041364;28;45490;-67
2022/12/25 09:39:19;;;;;;;;;7.67;7.33;;;;;13.17;71.32;100575.41;5029310;28;47731;-66
2022/12/25 09:41:48;;;;;;;;;10.33;9.00;;;;;13.31;71.20;100597.03;5017794;28;45751;-66
2022/12/25 09:44:27;;;;;;;;;8.00;6.00;;;;;13.31;71.10;100599.69;5034994;28;45376;-66
2022/12/25 09:47:06;;;;;;;;;8.00;7.67;;;;;13.30;71.10;100591.63;5036623;28;45467;-70
2022/12/25 09:50:06;;;;;;;;;9.00;7.00;;;;;13.23;71.16;100583.53;5033859;28;46928;-67
2022/12/25 09:52:56;;;;;;;;;9.00;7.67;;;;;13.31;70.98;100601.50;5030700;28;45492;-67
2022/12/25 09:55:28;;;;;;;;;10.00;7.33;;;;;13.16;70.56;100580.72;5030149;28;45632;-66
2022/12/25 09:57:57;;;;;;;;;8.33;8.33;;;;;13.29;70.83;100614.88;5029712;28;45432;-64
2022/12/25 10:00:27;;;;;;;;;7.67;7.33;;;;;13.21;70.87;100611.19;5042911;28;48277;-65
2022/12/25 10:03:12;;;;;;;;;11.33;6.67;;;;;13.24;71.57;100601.41;5031419;28;45217;-66
2022/12/25 10:05:43;;;;;;;;;8.33;7.00;;;;;13.28;70.86;100603.25;5042889;28;46056;-68
2022/12/25 10:08:41;;;;;;;;;12.00;10.00;;;;;13.26;70.44;100585.34;5029124;28;45320;-66
2022/12/25 10:11:26;;;;;;;;;6.33;6.33;;;;;13.28;70.24;100584.47;5039048;28;45322;-62
2022/12/25 10:14:04;;;;;;;;;10.00;8.67;;;;;13.39;70.96;100606.09;5049507;28;45138;-64
2022/12/25 10:16:51;;;;;;;;;7.33;6.00;;;;;13.40;69.85;100598.97;5047837;28;46001;-65
2022/12/25 10:19:28;;;;;;;;;14.33;9.33;;;;;13.44;70.59;100588.28;5041293;28;45009;-65
2022/12/25 10:21:59;;;;;;;;;9.67;7.33;;;;;13.49;70.07;100574.03;5028852;28;45534;-66
2022/12/25 10:24:32;;;;;;;;;9.33;8.33;;;;;13.32;69.44;100552.31;5034790;28;45458;-65
2022/12/25 10:27:02;;;;;;;;;6.00;6.00;;;;;13.44;69.71;100571.28;5032835;28;45362;-64
2022/12/25 10:29:31;;;;;;;;;7.00;7.00;;;;;13.56;69.94;100587.53;5033669;28;45444;-65
2022/12/25 10:31:57;;;;;;;;;7.00;7.00;;;;;13.44;69.54;100561.44;5027706;28;46235;-68
2022/12/25 10:34:22;;;;;;;;;7.33;6.00;;;;;13.61;69.14;100579.50;5033559;28;45292;-68
2022/12/25 10:36:49;;;;;;;;;7.33;6.00;;;;;13.56;68.90;100552.66;5035214;28;45489;-65
2022/12/25 10:39:25;;;;;;;;;7.33;6.00;;;;;13.64;68.67;100574.19;5032294;28;45617;-63
2022/12/25 10:42:09;;;;;;;;;12.33;10.00;;;;;13.67;69.02;100593.00;5032577;28;45517;-65
2022/12/25 10:44:35;;;;;;;;;8.67;7.67;;;;;13.68;68.69;100591.22;5027441;28;45392;-66
2022/12/25 10:47:02;;;;;;;;;7.00;5.00;;;;;13.71;68.44;100591.25;5031909;28;45351;-66
2022/12/25 10:49:38;;;;;;;;;8.33;6.00;;;;;13.56;68.31;100540.97;5033187;28;45229;-66
2022/12/25 10:52:18;;;;;;;;;6.33;6.33;;;;;13.64;68.87;100553.63;5027053;28;46402;-64
2022/12/25 10:54:43;;;;;;;;;8.33;6.00;;;;;13.61;68.27;100533.88;5016309;28;45480;-64
2022/12/25 10:57:09;;;;;;;;;9.67;7.33;;;;;13.79;68.38;100579.75;5032884;28;45284;-65
2022/12/25 10:59:45;;;;;;;;;6.33;6.00;;;;;13.85;67.91;100576.19;5014347;28;45596;-67
2022/12/25 11:02:15;;;;;;;;;10.00;8.00;;;;;13.93;68.04;100581.66;5034208;28;45446;-67
2022/12/25 11:04:41;;;;;;;;;8.00;5.00;;;;;13.72;67.17;100548.31;5028690;28;45538;-67
2022/12/25 11:07:20;;;;;;;;;8.33;8.00;;;;;13.89;67.88;100574.44;5028888;28;45549;-67
2022/12/25 11:09:59;;;;;;;;;10.33;10.33;;;;;13.92;67.28;100569.09;5031573;28;45498;-66
2022/12/25 11:12:33;;;;;;;;;8.33;6.67;;;;;13.99;67.21;100588.00;5034127;28;45754;-67
2022/12/25 11:15:03;;;;;;;;;7.00;7.00;;;;;13.96;67.08;100546.78;5028355;28;45398;-67
2022/12/25 11:17:28;;;;;;;;;11.33;10.00;;;;;14.06;66.89;100562.09;5027604;28;45600;-67
2022/12/25 11:20:00;;;;;;;;;9.00;7.00;;;;;14.04;67.03;100569.25;5036841;28;45419;-65
2022/12/25 11:22:28;;;;;;;;;12.00;8.00;;;;;14.06;66.77;100575.53;5029576;28;45740;-67
2022/12/25 11:24:54;;;;;;;;;7.67;5.33;;;;;14.05;66.75;100576.38;5033594;28;45507;-69
2022/12/25 11:27:21;;;;;;;;;13.33;7.67;;;;;14.03;66.39;100585.34;5034030;28;45352;-69
2022/12/25 11:29:51;;;;;;;;;11.33;7.67;;;;;14.07;66.64;100596.09;5012219;28;45388;-69
2022/12/25 11:32:40;;;;;;;;;11.00;8.67;;;;;14.05;66.73;100619.38;5034851;28;46938;-69
2022/12/25 11:35:12;;;;;;;;;7.33;7.33;;;;;14.03;66.62;100613.09;5015983;28;45352;-70
2022/12/25 11:37:42;;;;;;;;;10.67;9.00;;;;;13.98;66.96;100602.28;5016883;28;45498;-69
2022/12/25 11:40:16;;;;;;;;;8.00;6.67;;;;;14.08;66.48;100605.97;5034110;28;45500;-70
2022/12/25 11:42:51;;;;;;;;;6.33;6.33;;;;;14.10;66.98;100611.38;5034462;28;46240;-69
2022/12/25 11:45:23;;;;;;;;;9.33;7.00;;;;;14.08;66.42;100602.41;5015854;28;45636;-69
2022/12/25 11:47:55;;;;;;;;;9.67;8.33;;;;;14.10;67.24;100617.63;5033006;28;45452;-70
2022/12/25 11:50:37;;;;;;;;;8.67;7.67;;;;;14.13;66.74;100609.59;5033547;28;45312;-70
2022/12/25 11:53:09;;;;;;;;;8.33;7.00;;;;;14.14;66.55;100603.34;5029529;28;46186;-70
2022/12/25 11:55:53;;;;;;;;;5.67;5.67;;;;;14.10;66.47;100585.38;5035254;28;45688;-70
2022/12/25 11:58:31;;;;;;;;;7.00;7.00;;;;;14.14;66.63;100581.88;5033356;28;45443;-69
2022/12/25 12:00:59;;;;;;;;;9.33;8.33;;;;;14.19;66.58;100572.06;5035114;28;45386;-70
2022/12/25 12:03:34;;;;;;;;;12.33;8.33;;;;;14.16;66.64;100563.97;5030343;28;45486;-68
2022/12/25 12:06:31;;;;;;;;;13.00;10.00;;;;;14.24;65.97;100572.09;5031031;28;45414;-68
2022/12/25 12:09:23;;;;;;;;;8.67;8.67;;;;;14.15;66.33;100567.53;5016175;28;45486;-69
2022/12/25 12:12:04;;;;;;;;;8.00;8.00;;;;;14.28;66.78;100575.69;5036604;28;45489;-68
2022/12/25 12:14:29;;;;;;;;;8.33;8.33;;;;;14.30;66.41;100568.53;5031521;28;46634;-71
2022/12/25 12:16:55;;;;;;;;;7.00;7.00;;;;;14.27;66.20;100547.03;5038056;28;45198;-70
2022/12/25 12:19:27;;;;;;;;;11.33;10.67;;;;;14.33;66.14;100550.66;5037379;28;45782;-70
2022/12/25 12:21:55;;;;;;;;;12.33;9.67;;;;;14.38;66.13;100562.34;5036858;28;45473;-71
2022/12/25 12:24:23;;;;;;;;;10.67;9.00;;;;;14.38;65.91;100564.13;5025102;28;46573;-69
2022/12/25 12:27:04;;;;;;;;;9.33;8.00;;;;;14.38;66.07;100539.94;5037294;28;45554;-70
2022/12/25 12:29:43;;;;;;;;;13.00;11.00;;;;;14.40;66.00;100535.47;5037734;28;45373;-70
2022/12/25 12:32:28;;;;;;;;;14.33;10.00;;;;;14.47;65.62;100533.72;5037478;28;45621;-70
2022/12/25 12:34:55;;;;;;;;;10.33;9.67;;;;;14.48;65.82;100525.66;5028652;28;45629;-70
2022/12/25 12:37:40;;;;;;;;;11.00;8.67;;;;;14.52;65.49;100542.75;5037532;28;45537;-70
2022/12/25 12:40:20;;;;;;;;;8.00;8.00;;;;;14.56;65.49;100532.00;5032779;28;45754;-70
2022/12/25 12:42:49;;;;;;;;;8.67;7.67;;;;;14.57;65.13;100546.38;5021482;28;45419;-69
2022/12/25 12:45:19;;;;;;;;;7.67;7.00;;;;;14.12;64.95;100486.94;5035325;28;46335;-70
2022/12/25 12:47:48;;;;;;;;;9.67;8.00;;;;;14.58;65.12;100561.59;5035507;28;45308;-69
2022/12/25 12:50:36;;;;;;;;;12.33;10.00;;;;;14.56;65.25;100549.94;5036286;28;45497;-70
2022/12/25 12:53:27;;;;;;;;;15.00;14.67;;;;;14.60;65.40;100538.34;5037734;28;45324;-69
2022/12/25 12:55:53;;;;;;;;;9.33;6.33;;;;;14.34;64.87;100487.97;5033899;28;45620;-69
2022/12/25 12:58:31;;;;;;;;;7.67;7.67;;;;;14.62;65.11;100530.28;5034723;28;45549;-70
2022/12/25 13:01:10;;;;;;;;;11.33;9.00;;;;;14.66;65.07;100518.66;5032583;28;46575;-70
2022/12/25 13:03:56;;;;;;;;;11.00;9.67;;;;;14.79;65.08;100533.09;5013701;28;45747;-71
2022/12/25 13:06:30;;;;;;;;;9.67;9.67;;;;;14.88;64.35;100535.81;5033097;28;46861;-70
2022/12/25 13:09:18;;;;;;;;;12.33;11.00;;;;;14.92;63.83;100513.44;5018484;28;45319;-69
2022/12/25 13:11:44;;;;;;;;;9.67;6.67;;;;;15.04;63.58;100507.19;5034020;28;45509;-69